Terminal Aerodrome Forecast
Issued by NWS

Home | Current Version | Previous Version | Text Only | Print | Product List | Glossary On
Versions: 1 2 3 4 5 6 7 8 9 10 11 12 13 14 15 16 17 18
000
FTAK31 PAJN 280520
TAFAWG
TAF
PAWG 280520Z 2806/2906 10004KT P6SM VCSH SCT025 BKN040 OVC060
     FM280800 00000KT 5SM -SHRA OVC028
     FM281100 VRB02KT 4SM BR OVC015
     FM281800 09003KT P6SM BKN020 OVC050
     FM290000 10003KT P6SM BKN050
      AMD NOT SKED 2806/2815=

USA.gov is the U.S. government's official web portal to all federal, state and local government web resources and services.